Time;durP1;ratioP1;P1;durP2;ratioP2;P2;SDS_P1;SDS_P2;PMS_P1;PMS_P2;Temp;Humidity;BMP_temperature;BMP_pressure;BME280_temperature;BME280_humidity;BME280_pressure;Samples;Min_cycle;Max_cycle;Signal;HPM_P1;HPM_P2
2022/01/19 00:01:01;;;;;;;31.67;15.13;;;;;;;;;;6159230;23;20423;-76
2022/01/19 00:03:27;;;;;;;40.92;16.20;;;;;;;;;;6162030;23;20002;-75
2022/01/19 00:05:54;;;;;;;39.80;17.33;;;;;;;;;;6147465;23;20088;-76
2022/01/19 00:08:21;;;;;;;31.88;15.35;;;;;;;;;;6160175;23;20006;-77
2022/01/19 00:10:48;;;;;;;36.83;15.07;;;;;;;;;;6161497;23;19997;-76
2022/01/19 00:13:14;;;;;;;37.88;16.80;;;;;;;;;;6162280;23;20021;-76
2022/01/19 00:15:40;;;;;;;36.58;16.27;;;;;;;;;;6161124;23;20024;-75
2022/01/19 00:18:07;;;;;;;37.95;14.88;;;;;;;;;;6160962;23;20431;-75
2022/01/19 00:20:34;;;;;;;40.00;16.13;;;;;;;;;;6162812;23;20019;-75
2022/01/19 00:23:01;;;;;;;43.13;17.25;;;;;;;;;;6163206;23;20008;-75
2022/01/19 00:25:27;;;;;;;40.80;16.88;;;;;;;;;;6149833;23;20006;-75
2022/01/19 00:27:53;;;;;;;35.10;16.65;;;;;;;;;;6161600;23;19998;-75
2022/01/19 00:30:19;;;;;;;47.80;17.88;;;;;;;;;;6162057;23;20025;-75
2022/01/19 00:32:45;;;;;;;43.08;18.08;;;;;;;;;;6162133;23;20002;-76
2022/01/19 00:35:12;;;;;;;49.55;19.10;;;;;;;;;;6162000;23;19997;-76
2022/01/19 00:37:39;;;;;;;47.42;20.10;;;;;;;;;;6162022;23;19998;-75
2022/01/19 00:40:06;;;;;;;47.55;21.20;;;;;;;;;;6162002;23;20098;-76
2022/01/19 00:42:32;;;;;;;49.47;21.90;;;;;;;;;;6149872;23;20092;-76
2022/01/19 00:44:58;;;;;;;51.63;23.48;;;;;;;;;;6160977;23;20010;-76
2022/01/19 00:47:24;;;;;;;49.33;21.30;;;;;;;;;;6162595;23;20685;-76
2022/01/19 00:49:50;;;;;;;46.42;22.15;;;;;;;;;;6162145;23;20002;-76
2022/01/19 00:52:16;;;;;;;49.90;20.35;;;;;;;;;;6162137;23;20010;-74
2022/01/19 00:54:42;;;;;;;40.38;20.20;;;;;;;;;;6161788;23;20449;-76
2022/01/19 00:57:09;;;;;;;51.63;18.38;;;;;;;;;;6150000;23;20005;-76
2022/01/19 00:59:35;;;;;;;47.28;20.08;;;;;;;;;;6149996;23;20021;-76
2022/01/19 01:02:01;;;;;;;47.72;18.27;;;;;;;;;;6149840;23;20009;-77
2022/01/19 01:04:27;;;;;;;52.17;19.77;;;;;;;;;;6150327;23;20005;-76
2022/01/19 01:06:53;;;;;;;51.22;20.83;;;;;;;;;;6151356;23;20006;-77
2022/01/19 01:09:19;;;;;;;53.88;21.15;;;;;;;;;;6161607;23;20001;-77
2022/01/19 01:20:03;;;;;;;63.55;20.10;;;;;;;;;;6161835;23;20469;-75
2022/01/19 01:22:29;;;;;;;51.13;22.38;;;;;;;;;;6160331;23;20052;-77
2022/01/19 01:24:55;;;;;;;60.53;22.30;;;;;;;;;;6160713;23;20001;-77
2022/01/19 01:27:21;;;;;;;73.72;25.15;;;;;;;;;;6161638;23;20005;-77
2022/01/19 01:29:48;;;;;;;66.68;26.75;;;;;;;;;;6161224;23;20002;-77
2022/01/19 01:32:14;;;;;;;54.97;26.05;;;;;;;;;;6161901;23;20006;-77
2022/01/19 01:34:40;;;;;;;67.07;29.20;;;;;;;;;;6161279;23;20002;-77
2022/01/19 01:37:06;;;;;;;65.30;28.50;;;;;;;;;;6160099;23;19998;-77
2022/01/19 01:39:32;;;;;;;64.07;25.95;;;;;;;;;;6160891;23;19997;-77
2022/01/19 01:41:58;;;;;;;63.08;24.30;;;;;;;;;;6152523;23;20002;-76
2022/01/19 01:44:24;;;;;;;59.35;23.85;;;;;;;;;;6162552;23;20503;-76
2022/01/19 01:46:55;;;;;;;56.53;21.23;;;;;;;;;;6161024;23;20008;-74
2022/01/19 01:53:16;;;;;;;54.78;21.80;;;;;;;;;;6160116;23;20081;-73
2022/01/19 01:54:53;;;;;;;64.40;22.02;;;;;;;;;;6161746;23;20024;-75
2022/01/19 01:57:19;;;;;;;53.22;21.77;;;;;;;;;;6160380;23;20113;-74
2022/01/19 01:59:45;;;;;;;62.90;22.58;;;;;;;;;;6162157;23;20001;-74
2022/01/19 02:02:11;;;;;;;64.60;23.85;;;;;;;;;;6162149;23;20001;-74
2022/01/19 02:04:40;;;;;;;73.82;25.33;;;;;;;;;;6161431;23;20342;-74
2022/01/19 02:07:32;;;;;;;61.10;24.90;;;;;;;;;;6161565;23;20092;-75
2022/01/19 02:10:00;;;;;;;69.80;26.50;;;;;;;;;;6161506;23;19997;-75
2022/01/19 02:23:34;;;;;;;79.32;28.38;;;;;;;;;;6160811;23;20458;-75
2022/01/19 02:26:03;;;;;;;79.00;32.40;;;;;;;;;;6161960;23;20070;-75
2022/01/19 02:36:39;;;;;;;73.88;31.55;;;;;;;;;;6160622;23;20016;-75
2022/01/19 02:41:52;;;;;;;100.05;35.22;;;;;;;;;;6161368;23;20044;-75
2022/01/19 02:49:45;;;;;;;92.78;35.47;;;;;;;;;;6162081;23;20014;-75
2022/01/19 02:52:11;;;;;;;91.85;32.20;;;;;;;;;;6161075;23;19998;-76
2022/01/19 02:54:37;;;;;;;85.97;33.45;;;;;;;;;;6160818;23;20006;-75
2022/01/19 02:57:04;;;;;;;112.15;36.33;;;;;;;;;;6161371;23;20318;-75
2022/01/19 03:10:38;;;;;;;83.47;32.92;;;;;;;;;;6137429;23;20423;-75
2022/01/19 03:13:04;;;;;;;92.57;30.38;;;;;;;;;;6161471;23;20015;-75
2022/01/19 03:15:31;;;;;;;98.15;30.50;;;;;;;;;;6161216;23;20028;-74
2022/01/19 03:17:59;;;;;;;91.75;29.85;;;;;;;;;;6160467;23;20025;-76
2022/01/19 03:20:26;;;;;;;94.60;29.40;;;;;;;;;;6160739;23;20009;-76
2022/01/19 03:23:13;;;;;;;90.93;30.55;;;;;;;;;;6159300;23;20502;-75
2022/01/19 03:25:39;;;;;;;91.70;30.92;;;;;;;;;;6160092;23;20302;-75
2022/01/19 03:28:06;;;;;;;110.88;31.23;;;;;;;;;;6160276;23;20072;-75
2022/01/19 03:30:32;;;;;;;103.30;29.92;;;;;;;;;;6160286;23;20004;-75
2022/01/19 03:32:59;;;;;;;97.50;29.85;;;;;;;;;;6161872;23;20387;-75
2022/01/19 03:35:25;;;;;;;87.88;27.75;;;;;;;;;;6148244;23;20080;-74
2022/01/19 03:37:51;;;;;;;89.95;27.13;;;;;;;;;;6160052;23;20408;-74
2022/01/19 03:40:17;;;;;;;96.00;27.88;;;;;;;;;;6148835;23;20010;-75
2022/01/19 03:42:43;;;;;;;84.13;26.58;;;;;;;;;;6160885;23;20014;-73
2022/01/19 03:45:10;;;;;;;86.55;28.90;;;;;;;;;;6160288;23;20415;-73
2022/01/19 03:47:44;;;;;;;119.63;36.15;;;;;;;;;;6159646;23;20336;-73
2022/01/19 03:50:10;;;;;;;90.65;28.80;;;;;;;;;;6161237;23;20410;-73
2022/01/19 03:52:36;;;;;;;82.63;25.13;;;;;;;;;;6160140;23;20060;-73
2022/01/19 03:55:03;;;;;;;81.15;25.08;;;;;;;;;;6159583;23;20399;-73
2022/01/19 03:57:29;;;;;;;73.50;24.27;;;;;;;;;;6160619;23;20852;-73
2022/01/19 03:59:55;;;;;;;73.00;23.90;;;;;;;;;;6159670;23;20622;-73
2022/01/19 04:02:22;;;;;;;72.20;24.42;;;;;;;;;;6160618;23;20002;-74
2022/01/19 04:07:17;;;;;;;71.93;23.98;;;;;;;;;;6160348;23;20518;-74
2022/01/19 04:09:44;;;;;;;65.43;22.17;;;;;;;;;;6160521;23;19997;-74
2022/01/19 04:12:14;;;;;;;74.03;24.75;;;;;;;;;;6161373;23;20021;-74
2022/01/19 04:14:40;;;;;;;90.50;23.08;;;;;;;;;;6159999;23;20091;-74
2022/01/19 04:17:11;;;;;;;65.15;22.52;;;;;;;;;;6161129;23;20021;-73
2022/01/19 04:22:07;;;;;;;79.07;22.10;;;;;;;;;;6161023;23;20014;-72
2022/01/19 04:24:33;;;;;;;65.13;21.73;;;;;;;;;;6149264;23;20315;-73
2022/01/19 04:29:45;;;;;;;69.27;22.60;;;;;;;;;;6161826;23;20453;-72
2022/01/19 04:32:16;;;;;;;57.85;22.60;;;;;;;;;;6160274;23;19998;-73
2022/01/19 04:34:44;;;;;;;71.88;23.15;;;;;;;;;;6160721;23;20419;-72
2022/01/19 05:06:41;;;;;;;51.70;19.30;;;;;;;;;;6162917;23;20049;-72
2022/01/19 05:09:59;;;;;;;52.28;21.58;;;;;;;;;;6162451;23;20482;-72
2022/01/19 05:14:38;;;;;;;50.03;21.10;;;;;;;;;;6164675;23;20405;-72
2022/01/19 05:17:04;;;;;;;54.80;20.05;;;;;;;;;;6163718;23;20370;-72
2022/01/19 05:19:30;;;;;;;60.17;22.95;;;;;;;;;;6162336;23;20021;-72
2022/01/19 05:21:56;;;;;;;57.95;22.83;;;;;;;;;;6159940;23;20001;-71
2022/01/19 05:24:22;;;;;;;58.63;22.02;;;;;;;;;;6161155;23;20013;-72
2022/01/19 05:26:51;;;;;;;57.15;22.08;;;;;;;;;;6160646;23;20422;-71
2022/01/19 05:29:17;;;;;;;57.78;21.90;;;;;;;;;;6162552;23;20009;-72
2022/01/19 05:31:43;;;;;;;52.88;22.25;;;;;;;;;;6160966;23;20002;-73
2022/01/19 05:34:09;;;;;;;52.08;21.35;;;;;;;;;;6160483;23;20015;-72
2022/01/19 05:36:35;;;;;;;53.53;21.75;;;;;;;;;;6160604;23;20008;-73
2022/01/19 05:39:04;;;;;;;55.90;24.05;;;;;;;;;;6161731;23;20002;-72
2022/01/19 05:41:31;;;;;;;62.65;23.50;;;;;;;;;;6162059;23;20033;-72
2022/01/19 05:43:57;;;;;;;51.28;22.33;;;;;;;;;;6162129;23;20021;-73
2022/01/19 05:46:23;;;;;;;54.95;23.13;;;;;;;;;;6159844;23;19994;-72
2022/01/19 05:48:49;;;;;;;55.47;23.45;;;;;;;;;;6159479;23;20056;-72
2022/01/19 05:51:15;;;;;;;55.95;22.08;;;;;;;;;;6160881;23;20430;-72
2022/01/19 05:53:42;;;;;;;53.33;22.20;;;;;;;;;;6159981;23;20006;-72
2022/01/19 05:56:08;;;;;;;60.00;23.00;;;;;;;;;;6161500;23;19998;-72
2022/01/19 05:58:34;;;;;;;55.08;22.60;;;;;;;;;;6159761;23;20052;-72
2022/01/19 06:01:00;;;;;;;51.75;21.02;;;;;;;;;;6161822;23;20035;-72
2022/01/19 06:03:26;;;;;;;46.17;20.83;;;;;;;;;;6161374;23;20422;-72
2022/01/19 06:05:52;;;;;;;50.80;22.75;;;;;;;;;;6162267;23;20001;-72
2022/01/19 06:10:54;;;;;;;50.42;23.88;;;;;;;;;;6160526;23;20006;-72
2022/01/19 06:13:21;;;;;;;49.00;24.70;;;;;;;;;;6160995;23;20028;-72
2022/01/19 06:15:48;;;;;;;54.67;22.90;;;;;;;;;;6161786;23;20013;-72
2022/01/19 06:18:14;;;;;;;51.22;22.35;;;;;;;;;;6125431;23;20426;-72
2022/01/19 06:20:40;;;;;;;59.70;23.13;;;;;;;;;;6161913;23;19997;-72
2022/01/19 06:23:06;;;;;;;57.80;23.80;;;;;;;;;;6162012;23;20005;-72
2022/01/19 06:25:33;;;;;;;58.00;25.25;;;;;;;;;;6161580;23;20446;-72
2022/01/19 06:27:59;;;;;;;60.65;24.98;;;;;;;;;;6162794;23;20005;-72
2022/01/19 06:30:25;;;;;;;54.50;23.35;;;;;;;;;;6160285;23;20008;-72
2022/01/19 06:32:51;;;;;;;57.70;25.02;;;;;;;;;;6162177;23;20010;-72
2022/01/19 06:35:17;;;;;;;52.33;24.48;;;;;;;;;;6161246;23;19997;-72
2022/01/19 06:37:43;;;;;;;51.65;23.42;;;;;;;;;;6150645;23;20002;-72
2022/01/19 06:40:10;;;;;;;56.60;25.15;;;;;;;;;;6160201;23;20339;-72
2022/01/19 06:42:37;;;;;;;54.40;24.17;;;;;;;;;;6161397;23;20017;-72
2022/01/19 06:45:04;;;;;;;58.00;24.45;;;;;;;;;;6161499;23;20064;-72
2022/01/19 06:47:30;;;;;;;66.72;26.48;;;;;;;;;;6161312;23;20326;-72
2022/01/19 06:49:56;;;;;;;58.97;26.05;;;;;;;;;;6161441;23;20065;-72
2022/01/19 06:52:22;;;;;;;50.85;25.63;;;;;;;;;;6160914;23;20009;-72
2022/01/19 06:54:48;;;;;;;54.05;25.85;;;;;;;;;;6150765;23;20001;-72
2022/01/19 06:57:14;;;;;;;51.20;24.70;;;;;;;;;;6149588;23;20016;-72
2022/01/19 06:59:40;;;;;;;55.22;26.58;;;;;;;;;;6162376;23;20449;-73
2022/01/19 07:02:06;;;;;;;51.10;27.05;;;;;;;;;;6158344;23;20012;-72
2022/01/19 07:04:32;;;;;;;50.83;26.67;;;;;;;;;;6149753;23;20044;-72
2022/01/19 07:06:59;;;;;;;59.17;28.10;;;;;;;;;;6147647;23;20009;-72
2022/01/19 07:09:25;;;;;;;54.00;25.52;;;;;;;;;;6160039;23;20005;-72
2022/01/19 07:11:51;;;;;;;53.10;26.85;;;;;;;;;;6150326;23;20006;-72
2022/01/19 07:14:17;;;;;;;54.17;26.20;;;;;;;;;;6159754;23;20697;-72
2022/01/19 07:16:43;;;;;;;52.38;26.00;;;;;;;;;;6161463;23;20319;-72
2022/01/19 07:19:10;;;;;;;63.33;32.13;;;;;;;;;;6160505;23;19993;-72
2022/01/19 07:21:36;;;;;;;63.53;27.75;;;;;;;;;;6160833;23;19998;-71
2022/01/19 07:24:02;;;;;;;58.97;27.98;;;;;;;;;;6159848;23;20034;-71
2022/01/19 07:26:28;;;;;;;59.30;27.95;;;;;;;;;;6160902;23;20044;-72
2022/01/19 07:28:54;;;;;;;59.25;27.77;;;;;;;;;;6149348;23;20134;-71
2022/01/19 07:31:20;;;;;;;54.15;27.30;;;;;;;;;;6160434;23;20025;-72
2022/01/19 07:33:47;;;;;;;54.35;27.77;;;;;;;;;;6161526;23;20415;-72
2022/01/19 07:36:13;;;;;;;54.35;27.55;;;;;;;;;;6160396;23;20005;-72
2022/01/19 07:38:39;;;;;;;55.67;26.42;;;;;;;;;;6161778;23;20487;-72
2022/01/19 07:41:05;;;;;;;55.58;28.65;;;;;;;;;;6161148;23;20002;-72
2022/01/19 07:43:31;;;;;;;55.85;29.85;;;;;;;;;;6161627;23;20009;-72
2022/01/19 07:45:57;;;;;;;54.90;27.95;;;;;;;;;;6160876;23;20029;-72
2022/01/19 07:48:23;;;;;;;67.53;30.15;;;;;;;;;;6160914;23;20005;-73
2022/01/19 07:50:49;;;;;;;68.15;31.13;;;;;;;;;;6149352;23;20017;-72
2022/01/19 07:53:15;;;;;;;54.35;27.90;;;;;;;;;;6162108;23;20009;-70
2022/01/19 07:55:42;;;;;;;54.03;29.05;;;;;;;;;;6161182;23;20002;-71
2022/01/19 07:58:09;;;;;;;61.80;28.95;;;;;;;;;;6160242;23;20517;-71
2022/01/19 08:00:38;;;;;;;63.50;30.75;;;;;;;;;;6150329;23;20008;-71
2022/01/19 08:03:04;;;;;;;58.38;29.55;;;;;;;;;;6159817;23;20009;-72
2022/01/19 08:05:31;;;;;;;61.67;29.70;;;;;;;;;;6161092;23;20005;-71
2022/01/19 08:07:57;;;;;;;62.05;29.33;;;;;;;;;;6160757;23;20006;-71
2022/01/19 08:10:23;;;;;;;57.95;29.75;;;;;;;;;;6161456;23;20419;-71
2022/01/19 08:12:51;;;;;;;63.90;29.67;;;;;;;;;;6160461;23;20002;-71
2022/01/19 08:15:18;;;;;;;66.85;29.52;;;;;;;;;;6160531;23;20374;-71
2022/01/19 08:17:44;;;;;;;68.03;31.42;;;;;;;;;;6161423;23;20005;-71
2022/01/19 08:20:11;;;;;;;65.25;28.85;;;;;;;;;;6148976;23;20005;-72
2022/01/19 08:22:37;;;;;;;82.15;38.47;;;;;;;;;;6161927;23;20481;-71
2022/01/19 08:25:03;;;;;;;76.15;38.30;;;;;;;;;;6160392;23;19998;-72
2022/01/19 08:27:29;;;;;;;65.20;30.02;;;;;;;;;;6161148;23;20013;-72
2022/01/19 08:29:57;;;;;;;73.00;31.45;;;;;;;;;;6159572;23;19997;-72
2022/01/19 08:32:23;;;;;;;59.97;29.58;;;;;;;;;;6156805;23;20002;-72
2022/01/19 08:34:49;;;;;;;66.93;30.20;;;;;;;;;;6160122;23;20001;-72
2022/01/19 08:37:16;;;;;;;67.80;29.95;;;;;;;;;;6162471;23;20001;-72
2022/01/19 08:39:42;;;;;;;66.82;31.52;;;;;;;;;;6162078;23;20001;-72
2022/01/19 08:42:09;;;;;;;69.50;34.15;;;;;;;;;;6150621;23;20084;-72
2022/01/19 08:44:35;;;;;;;95.47;40.97;;;;;;;;;;6163097;23;20032;-73
2022/01/19 08:47:01;;;;;;;75.63;35.42;;;;;;;;;;6162213;23;19998;-72
2022/01/19 08:49:27;;;;;;;68.38;33.35;;;;;;;;;;6163000;23;20033;-72
2022/01/19 08:51:53;;;;;;;61.30;31.83;;;;;;;;;;6158584;23;20006;-72
2022/01/19 08:54:19;;;;;;;66.40;32.22;;;;;;;;;;6161569;23;20009;-72
2022/01/19 08:56:45;;;;;;;63.58;31.00;;;;;;;;;;6161420;23;19997;-74
2022/01/19 08:59:11;;;;;;;58.63;30.50;;;;;;;;;;6147215;23;20006;-74
2022/01/19 09:01:37;;;;;;;60.67;32.28;;;;;;;;;;6163148;23;19998;-74
2022/01/19 09:04:03;;;;;;;56.50;29.50;;;;;;;;;;6160791;23;20085;-74
2022/01/19 09:06:30;;;;;;;66.00;32.65;;;;;;;;;;6162479;23;20002;-75
2022/01/19 09:08:56;;;;;;;64.18;31.45;;;;;;;;;;6160661;23;20004;-72
2022/01/19 09:11:22;;;;;;;59.35;30.10;;;;;;;;;;6163496;23;20005;-73
2022/01/19 09:13:49;;;;;;;57.65;32.28;;;;;;;;;;6160743;23;20370;-73
2022/01/19 09:16:15;;;;;;;65.63;33.13;;;;;;;;;;6161767;23;20024;-73
2022/01/19 09:18:41;;;;;;;65.65;31.52;;;;;;;;;;6162090;23;20060;-73
2022/01/19 09:21:07;;;;;;;59.30;30.05;;;;;;;;;;6162192;23;20001;-72
2022/01/19 09:23:35;;;;;;;66.65;32.70;;;;;;;;;;6162093;23;20009;-73
2022/01/19 09:26:02;;;;;;;65.30;32.00;;;;;;;;;;6124427;23;20005;-72
2022/01/19 09:28:28;;;;;;;69.32;32.33;;;;;;;;;;6159968;23;20126;-72
2022/01/19 09:30:56;;;;;;;67.00;32.22;;;;;;;;;;6159156;23;19997;-72
2022/01/19 09:33:24;;;;;;;74.55;36.72;;;;;;;;;;6162110;23;20001;-72
2022/01/19 09:38:25;;;;;;;65.15;33.72;;;;;;;;;;6162108;23;20006;-72
2022/01/19 09:40:51;;;;;;;68.65;31.67;;;;;;;;;;6160535;23;20001;-73
2022/01/19 09:43:21;;;;;;;71.60;32.95;;;;;;;;;;6160647;23;20014;-73
2022/01/19 09:45:47;;;;;;;75.10;34.53;;;;;;;;;;6160591;23;20356;-73
2022/01/19 09:48:13;;;;;;;69.53;34.20;;;;;;;;;;6160542;23;19998;-73
2022/01/19 09:50:39;;;;;;;70.93;35.47;;;;;;;;;;6162022;23;20002;-74
2022/01/19 09:53:07;;;;;;;69.68;33.20;;;;;;;;;;6158238;23;20028;-73
2022/01/19 09:55:33;;;;;;;68.00;34.15;;;;;;;;;;6160845;23;19998;-74
2022/01/19 09:57:59;;;;;;;72.20;35.08;;;;;;;;;;6157458;23;19998;-74
2022/01/19 10:00:26;;;;;;;72.07;34.33;;;;;;;;;;6159607;23;20008;-74
2022/01/19 10:03:12;;;;;;;74.10;35.67;;;;;;;;;;6157611;23;20080;-72
2022/01/19 10:05:57;;;;;;;76.82;37.33;;;;;;;;;;6160202;23;20422;-73
2022/01/19 10:08:43;;;;;;;72.40;35.22;;;;;;;;;;6158704;23;20005;-71
2022/01/19 10:16:59;;;;;;;63.88;32.88;;;;;;;;;;6127994;23;19920;-73
2022/01/19 10:19:25;;;;;;;65.68;32.83;;;;;;;;;;6130962;23;20072;-73
2022/01/19 10:22:03;;;;;;;72.53;34.28;;;;;;;;;;6132785;23;20001;-73
2022/01/19 10:24:34;;;;;;;70.70;33.25;;;;;;;;;;6120830;23;20006;-72
2022/01/19 10:27:20;;;;;;;69.53;33.33;;;;;;;;;;6132416;23;20024;-73
2022/01/19 10:29:47;;;;;;;72.00;33.40;;;;;;;;;;6131001;23;19998;-73
2022/01/19 10:32:14;;;;;;;63.65;33.72;;;;;;;;;;6131873;23;20427;-73
2022/01/19 10:34:40;;;;;;;72.32;34.25;;;;;;;;;;6129412;23;20006;-73
2022/01/19 10:37:06;;;;;;;65.68;35.05;;;;;;;;;;6129799;23;20375;-73
2022/01/19 10:39:43;;;;;;;70.53;35.20;;;;;;;;;;6130541;23;19998;-73
2022/01/19 10:42:15;;;;;;;65.90;34.08;;;;;;;;;;6130891;23;20367;-73
2022/01/19 10:44:43;;;;;;;66.70;33.28;;;;;;;;;;6130508;23;20396;-73
2022/01/19 10:47:10;;;;;;;71.07;33.70;;;;;;;;;;6132308;23;20001;-73
2022/01/19 10:49:53;;;;;;;78.20;35.63;;;;;;;;;;6130437;23;20323;-73
2022/01/19 10:52:34;;;;;;;79.00;36.28;;;;;;;;;;6130242;23;20207;-73
2022/01/19 10:55:02;;;;;;;67.55;33.88;;;;;;;;;;6119532;23;20010;-73
2022/01/19 10:57:29;;;;;;;61.75;34.63;;;;;;;;;;6129182;23;20045;-73
2022/01/19 11:00:14;;;;;;;69.85;35.80;;;;;;;;;;6131269;23;19998;-73
2022/01/19 11:02:41;;;;;;;78.15;37.08;;;;;;;;;;6131143;23;19998;-73
2022/01/19 11:05:07;;;;;;;71.35;35.45;;;;;;;;;;6131865;23;20510;-73
2022/01/19 11:07:33;;;;;;;72.47;36.85;;;;;;;;;;6130945;23;20005;-73
2022/01/19 11:10:08;;;;;;;81.97;40.20;;;;;;;;;;6119827;23;20030;-73
2022/01/19 11:12:40;;;;;;;70.95;37.13;;;;;;;;;;6131975;23;20002;-73
2022/01/19 11:15:08;;;;;;;77.82;38.85;;;;;;;;;;6144169;23;20323;-73
2022/01/19 11:17:34;;;;;;;74.45;36.25;;;;;;;;;;6162152;23;19994;-73
2022/01/19 11:20:08;;;;;;;70.82;35.53;;;;;;;;;;6160463;23;20001;-73
2022/01/19 11:22:42;;;;;;;65.68;36.97;;;;;;;;;;6161420;23;19998;-74
2022/01/19 11:25:18;;;;;;;73.03;35.25;;;;;;;;;;6160855;23;20296;-73
2022/01/19 11:27:46;;;;;;;60.00;33.70;;;;;;;;;;6149876;23;20005;-74
2022/01/19 11:30:15;;;;;;;70.03;33.65;;;;;;;;;;6160985;23;20076;-73
2022/01/19 11:32:41;;;;;;;63.00;33.40;;;;;;;;;;6160701;23;20008;-73
2022/01/19 11:35:08;;;;;;;59.35;31.35;;;;;;;;;;6162053;23;20008;-73
2022/01/19 11:37:34;;;;;;;63.40;32.80;;;;;;;;;;6150525;23;20028;-73
2022/01/19 11:40:18;;;;;;;56.53;30.25;;;;;;;;;;6161397;23;20008;-73
2022/01/19 11:42:45;;;;;;;68.85;37.95;;;;;;;;;;6159788;23;20006;-72
2022/01/19 11:45:31;;;;;;;58.17;30.65;;;;;;;;;;6161756;23;19997;-73
2022/01/19 11:48:14;;;;;;;55.88;30.02;;;;;;;;;;6141108;23;20037;-73
2022/01/19 11:50:40;;;;;;;58.33;30.67;;;;;;;;;;6159239;23;20318;-73
2022/01/19 11:53:11;;;;;;;58.08;32.08;;;;;;;;;;6160607;23;20017;-73
2022/01/19 11:55:38;;;;;;;57.22;30.23;;;;;;;;;;6148570;23;20010;-73
2022/01/19 11:58:12;;;;;;;59.95;29.55;;;;;;;;;;6161603;23;20319;-74
2022/01/19 12:00:39;;;;;;;62.85;31.02;;;;;;;;;;6158417;23;20334;-73
2022/01/19 12:03:17;;;;;;;59.35;32.03;;;;;;;;;;6148180;23;20117;-73
2022/01/19 12:05:44;;;;;;;59.95;31.33;;;;;;;;;;6160228;23;20005;-73
2022/01/19 12:08:30;;;;;;;66.38;31.05;;;;;;;;;;6162046;23;20093;-73
2022/01/19 12:10:58;;;;;;;58.42;31.15;;;;;;;;;;6161591;23;19998;-75
2022/01/19 12:13:37;;;;;;;52.35;30.08;;;;;;;;;;6162084;23;20354;-73
2022/01/19 12:16:10;;;;;;;62.72;30.02;;;;;;;;;;6163193;23;20013;-73
2022/01/19 12:18:40;;;;;;;71.25;31.67;;;;;;;;;;6152394;23;20033;-74
2022/01/19 12:21:07;;;;;;;63.15;34.00;;;;;;;;;;6161729;23;20029;-74
2022/01/19 12:23:35;;;;;;;60.60;29.70;;;;;;;;;;6162449;23;20008;-73
2022/01/19 12:26:01;;;;;;;56.80;29.40;;;;;;;;;;6162691;23;20005;-73
2022/01/19 12:28:40;;;;;;;55.00;27.02;;;;;;;;;;6162893;23;20009;-72
2022/01/19 12:31:25;;;;;;;60.17;28.45;;;;;;;;;;6161931;23;19998;-75
2022/01/19 12:34:11;;;;;;;54.17;28.27;;;;;;;;;;6163059;23;20427;-74
2022/01/19 12:36:40;;;;;;;63.10;27.63;;;;;;;;;;6161601;23;20002;-74
2022/01/19 12:39:25;;;;;;;44.67;24.05;;;;;;;;;;6162140;23;20056;-74
2022/01/19 12:41:54;;;;;;;49.20;23.05;;;;;;;;;;6163661;23;19997;-74
2022/01/19 12:44:35;;;;;;;54.63;23.77;;;;;;;;;;6161761;23;20102;-74
2022/01/19 12:47:06;;;;;;;42.35;22.38;;;;;;;;;;6162133;23;20056;-73
2022/01/19 12:49:32;;;;;;;46.33;22.55;;;;;;;;;;6162011;23;20080;-74
2022/01/19 12:52:00;;;;;;;45.00;21.42;;;;;;;;;;6161831;23;19994;-73
2022/01/19 12:54:28;;;;;;;46.38;20.67;;;;;;;;;;6161768;23;20525;-73
2022/01/19 12:56:58;;;;;;;42.97;20.58;;;;;;;;;;6161874;23;20311;-73
2022/01/19 12:59:25;;;;;;;39.38;20.80;;;;;;;;;;6162840;23;20021;-73
2022/01/19 13:01:51;;;;;;;43.13;19.48;;;;;;;;;;6161327;23;20006;-72
2022/01/19 13:04:28;;;;;;;45.35;19.55;;;;;;;;;;6162276;23;20092;-73
2022/01/19 13:06:56;;;;;;;43.55;20.27;;;;;;;;;;6161211;23;20009;-73
2022/01/19 13:09:32;;;;;;;43.17;20.70;;;;;;;;;;6162317;23;20025;-73
2022/01/19 13:12:01;;;;;;;41.55;21.08;;;;;;;;;;6161887;23;19994;-72
2022/01/19 13:14:29;;;;;;;48.17;22.15;;;;;;;;;;6162048;23;20009;-72
2022/01/19 13:16:55;;;;;;;52.60;25.20;;;;;;;;;;6162345;23;20088;-73
2022/01/19 13:19:22;;;;;;;47.97;22.58;;;;;;;;;;6160441;23;20068;-72
2022/01/19 13:21:50;;;;;;;56.33;25.92;;;;;;;;;;6162652;23;20005;-73
2022/01/19 13:24:30;;;;;;;43.08;23.52;;;;;;;;;;6161757;23;20132;-72
2022/01/19 13:26:59;;;;;;;53.20;23.77;;;;;;;;;;6150057;23;20041;-73
2022/01/19 13:29:27;;;;;;;45.42;22.85;;;;;;;;;;6162422;23;19994;-72
2022/01/19 13:31:53;;;;;;;39.15;21.10;;;;;;;;;;6162302;23;20467;-72
2022/01/19 13:34:19;;;;;;;41.83;20.88;;;;;;;;;;6160408;23;20032;-72
2022/01/19 13:36:52;;;;;;;44.80;20.98;;;;;;;;;;6159247;23;20347;-72
2022/01/19 13:39:20;;;;;;;49.03;23.50;;;;;;;;;;6162056;23;20054;-72
2022/01/19 13:41:47;;;;;;;46.53;21.17;;;;;;;;;;6162553;23;19997;-73
2022/01/19 13:44:16;;;;;;;45.38;21.33;;;;;;;;;;6163061;23;20001;-73
2022/01/19 13:46:42;;;;;;;46.28;22.02;;;;;;;;;;6150490;23;20092;-72
2022/01/19 13:49:08;;;;;;;41.15;20.50;;;;;;;;;;6162299;23;20001;-72
2022/01/19 13:51:37;;;;;;;42.70;19.63;;;;;;;;;;6161280;23;20318;-72
2022/01/19 13:54:05;;;;;;;44.53;20.55;;;;;;;;;;6162892;23;20072;-72
2022/01/19 13:56:33;;;;;;;48.58;21.27;;;;;;;;;;6161498;23;20004;-72
2022/01/19 13:59:02;;;;;;;43.45;19.08;;;;;;;;;;6150424;23;20323;-72
2022/01/19 14:01:35;;;;;;;38.00;16.42;;;;;;;;;;6162025;23;20012;-72
2022/01/19 14:04:06;;;;;;;38.35;15.40;;;;;;;;;;6160394;23;20001;-72
2022/01/19 14:06:34;;;;;;;35.88;13.35;;;;;;;;;;6162410;23;20130;-72
2022/01/19 14:09:06;;;;;;;37.17;14.20;;;;;;;;;;6162112;23;19997;-72
2022/01/19 14:11:32;;;;;;;43.22;15.48;;;;;;;;;;6161464;23;20367;-72
2022/01/19 14:13:59;;;;;;;34.70;13.25;;;;;;;;;;6149911;23;20002;-72
2022/01/19 14:16:25;;;;;;;33.72;12.38;;;;;;;;;;6162428;23;20002;-72
2022/01/19 14:19:06;;;;;;;33.63;13.35;;;;;;;;;;6162126;23;19997;-72
2022/01/19 14:21:33;;;;;;;33.63;12.50;;;;;;;;;;6161116;23;20538;-72
2022/01/19 14:23:59;;;;;;;48.03;15.27;;;;;;;;;;6162472;23;20002;-72
2022/01/19 14:26:25;;;;;;;31.13;13.65;;;;;;;;;;6161639;23;20002;-72
2022/01/19 14:29:11;;;;;;;47.60;14.82;;;;;;;;;;6160817;23;20069;-72
2022/01/19 14:31:50;;;;;;;34.47;12.73;;;;;;;;;;6150280;23;20002;-72
2022/01/19 14:34:16;;;;;;;37.58;14.82;;;;;;;;;;6162258;23;20002;-71
2022/01/19 14:36:42;;;;;;;36.30;13.32;;;;;;;;;;6161572;23;20099;-72
2022/01/19 14:39:08;;;;;;;32.55;13.95;;;;;;;;;;6161163;23;20114;-72
2022/01/19 14:41:37;;;;;;;36.65;13.70;;;;;;;;;;6161315;23;20076;-72
2022/01/19 14:44:20;;;;;;;37.63;15.07;;;;;;;;;;6160866;23;20002;-72
2022/01/19 14:47:07;;;;;;;42.50;13.70;;;;;;;;;;6162720;23;20009;-72
2022/01/19 14:49:35;;;;;;;34.85;13.93;;;;;;;;;;6151251;23;20002;-72
2022/01/19 14:52:01;;;;;;;30.55;12.00;;;;;;;;;;6161844;23;19997;-72
2022/01/19 14:54:27;;;;;;;37.00;12.48;;;;;;;;;;6161892;23;20029;-72
2022/01/19 14:56:53;;;;;;;32.58;11.30;;;;;;;;;;6160734;23;20431;-72
2022/01/19 14:59:23;;;;;;;27.67;11.30;;;;;;;;;;6161914;23;20002;-72
2022/01/19 15:01:52;;;;;;;31.45;9.38;;;;;;;;;;6161007;23;20370;-71
2022/01/19 15:04:18;;;;;;;23.90;9.20;;;;;;;;;;6161348;23;20001;-73
2022/01/19 15:06:44;;;;;;;26.23;9.52;;;;;;;;;;6160243;23;20001;-72
2022/01/19 15:09:11;;;;;;;31.27;11.05;;;;;;;;;;6162242;23;19997;-72
2022/01/19 15:11:37;;;;;;;25.02;8.20;;;;;;;;;;6150269;23;20012;-72
2022/01/19 15:14:04;;;;;;;27.50;9.30;;;;;;;;;;6160443;23;20451;-72
2022/01/19 15:16:30;;;;;;;22.98;8.68;;;;;;;;;;6161308;23;20245;-72
2022/01/19 15:18:56;;;;;;;24.48;9.93;;;;;;;;;;6148643;23;20079;-72
2022/01/19 15:21:22;;;;;;;28.30;10.25;;;;;;;;;;6161521;23;20005;-73
2022/01/19 15:23:53;;;;;;;37.78;11.27;;;;;;;;;;6149972;23;20442;-73
2022/01/19 15:26:19;;;;;;;32.28;11.50;;;;;;;;;;6163497;23;20002;-73
2022/01/19 15:28:49;;;;;;;31.42;11.45;;;;;;;;;;6161043;23;19997;-73
2022/01/19 15:31:15;;;;;;;33.10;11.48;;;;;;;;;;6162788;23;20470;-73
2022/01/19 15:33:42;;;;;;;40.20;12.30;;;;;;;;;;6162137;23;20029;-73
2022/01/19 15:36:08;;;;;;;36.97;12.18;;;;;;;;;;6161001;23;20009;-73
2022/01/19 15:38:35;;;;;;;43.70;12.45;;;;;;;;;;6161184;23;20005;-73
2022/01/19 15:41:01;;;;;;;39.40;11.32;;;;;;;;;;6160485;23;20005;-73
2022/01/19 15:43:27;;;;;;;43.70;11.13;;;;;;;;;;6160833;23;20052;-72
2022/01/19 15:45:53;;;;;;;43.17;11.82;;;;;;;;;;6159088;23;20005;-73
2022/01/19 15:48:20;;;;;;;57.50;11.80;;;;;;;;;;6159238;23;20001;-74
2022/01/19 15:50:47;;;;;;;61.38;23.67;;;;;;;;;;6157436;23;20415;-73
2022/01/19 15:53:13;;;;;;;51.53;10.23;;;;;;;;;;6159883;23;19997;-75
2022/01/19 15:55:40;;;;;;;39.65;8.57;;;;;;;;;;6161514;23;20009;-74
2022/01/19 15:58:06;;;;;;;39.53;7.80;;;;;;;;;;6161576;23;20002;-74
2022/01/19 16:00:33;;;;;;;32.47;7.22;;;;;;;;;;6160476;23;20001;-73
2022/01/19 16:02:59;;;;;;;30.20;5.93;;;;;;;;;;6161967;23;20002;-74